sensor_id;sensor_type;location;lat;lon;timestamp;P1;durP1;ratioP1;P2;durP2;ratioP2
2646;SDS011;1333;50.958;6.770;2022-12-05T00:01:23;21.80;;;12.73;;
2646;SDS011;1333;50.958;6.770;2022-12-05T00:03:50;25.00;;;11.70;;
2646;SDS011;1333;50.958;6.770;2022-12-05T00:06:17;19.80;;;11.20;;
2646;SDS011;1333;50.958;6.770;2022-12-05T00:08:43;28.17;;;11.90;;
2646;SDS011;1333;50.958;6.770;2022-12-05T00:11:09;23.87;;;12.50;;
2646;SDS011;1333;50.958;6.770;2022-12-05T00:13:39;18.30;;;10.47;;
2646;SDS011;1333;50.958;6.770;2022-12-05T00:16:10;23.40;;;11.73;;
2646;SDS011;1333;50.958;6.770;2022-12-05T00:18:37;17.70;;;10.47;;
2646;SDS011;1333;50.958;6.770;2022-12-05T00:21:03;19.10;;;12.13;;
2646;SDS011;1333;50.958;6.770;2022-12-05T00:23:29;16.87;;;9.80;;
2646;SDS011;1333;50.958;6.770;2022-12-05T00:25:55;24.20;;;12.40;;
2646;SDS011;1333;50.958;6.770;2022-12-05T00:28:20;21.00;;;10.70;;
2646;SDS011;1333;50.958;6.770;2022-12-05T00:30:46;17.27;;;10.17;;
2646;SDS011;1333;50.958;6.770;2022-12-05T00:33:12;22.07;;;11.27;;
2646;SDS011;1333;50.958;6.770;2022-12-05T00:35:37;18.67;;;10.10;;
2646;SDS011;1333;50.958;6.770;2022-12-05T00:38:03;26.57;;;11.17;;
2646;SDS011;1333;50.958;6.770;2022-12-05T00:40:28;20.00;;;10.20;;
2646;SDS011;1333;50.958;6.770;2022-12-05T00:42:54;19.10;;;11.57;;
2646;SDS011;1333;50.958;6.770;2022-12-05T00:45:19;19.90;;;11.10;;
2646;SDS011;1333;50.958;6.770;2022-12-05T00:47:45;17.87;;;11.30;;
2646;SDS011;1333;50.958;6.770;2022-12-05T00:50:10;19.63;;;10.83;;
2646;SDS011;1333;50.958;6.770;2022-12-05T00:52:36;22.83;;;11.17;;
2646;SDS011;1333;50.958;6.770;2022-12-05T00:55:01;21.50;;;10.87;;
2646;SDS011;1333;50.958;6.770;2022-12-05T00:57:27;19.80;;;10.43;;
2646;SDS011;1333;50.958;6.770;2022-12-05T00:59:53;21.50;;;11.70;;
2646;SDS011;1333;50.958;6.770;2022-12-05T01:02:18;22.13;;;11.63;;
2646;SDS011;1333;50.958;6.770;2022-12-05T01:04:44;18.47;;;10.10;;
2646;SDS011;1333;50.958;6.770;2022-12-05T01:07:09;19.20;;;10.40;;
2646;SDS011;1333;50.958;6.770;2022-12-05T01:09:35;21.77;;;9.90;;
2646;SDS011;1333;50.958;6.770;2022-12-05T01:12:00;19.90;;;9.87;;
2646;SDS011;1333;50.958;6.770;2022-12-05T01:14:26;16.07;;;9.53;;
2646;SDS011;1333;50.958;6.770;2022-12-05T01:16:52;24.77;;;11.70;;
2646;SDS011;1333;50.958;6.770;2022-12-05T01:19:23;18.13;;;9.50;;
2646;SDS011;1333;50.958;6.770;2022-12-05T01:21:51;19.40;;;9.07;;
2646;SDS011;1333;50.958;6.770;2022-12-05T01:24:18;17.47;;;9.97;;
2646;SDS011;1333;50.958;6.770;2022-12-05T01:26:44;20.23;;;11.00;;
2646;SDS011;1333;50.958;6.770;2022-12-05T01:29:11;16.10;;;10.50;;
2646;SDS011;1333;50.958;6.770;2022-12-05T01:31:37;17.23;;;9.63;;
2646;SDS011;1333;50.958;6.770;2022-12-05T01:34:05;20.80;;;10.53;;
2646;SDS011;1333;50.958;6.770;2022-12-05T01:36:33;15.80;;;8.57;;
2646;SDS011;1333;50.958;6.770;2022-12-05T01:38:59;23.83;;;11.27;;
2646;SDS011;1333;50.958;6.770;2022-12-05T01:41:26;20.30;;;11.00;;
2646;SDS011;1333;50.958;6.770;2022-12-05T01:46:58;18.27;;;10.50;;
2646;SDS011;1333;50.958;6.770;2022-12-05T01:49:24;17.63;;;9.43;;
2646;SDS011;1333;50.958;6.770;2022-12-05T01:51:57;20.10;;;9.77;;
2646;SDS011;1333;50.958;6.770;2022-12-05T01:54:27;23.10;;;10.93;;
2646;SDS011;1333;50.958;6.770;2022-12-05T01:56:58;20.83;;;11.33;;
2646;SDS011;1333;50.958;6.770;2022-12-05T01:59:26;17.70;;;10.27;;
2646;SDS011;1333;50.958;6.770;2022-12-05T02:01:56;22.70;;;11.40;;
2646;SDS011;1333;50.958;6.770;2022-12-05T02:04:21;21.83;;;9.90;;
2646;SDS011;1333;50.958;6.770;2022-12-05T02:06:47;16.93;;;9.47;;
2646;SDS011;1333;50.958;6.770;2022-12-05T02:09:13;17.27;;;9.17;;
2646;SDS011;1333;50.958;6.770;2022-12-05T02:11:52;19.20;;;9.60;;
2646;SDS011;1333;50.958;6.770;2022-12-05T02:14:25;19.77;;;9.27;;
2646;SDS011;1333;50.958;6.770;2022-12-05T02:17:23;17.37;;;8.57;;
2646;SDS011;1333;50.958;6.770;2022-12-05T02:21:14;18.83;;;9.10;;
2646;SDS011;1333;50.958;6.770;2022-12-05T02:31:51;17.47;;;8.60;;
2646;SDS011;1333;50.958;6.770;2022-12-05T02:37:24;21.53;;;11.23;;
2646;SDS011;1333;50.958;6.770;2022-12-05T02:42:50;18.77;;;10.70;;
2646;SDS011;1333;50.958;6.770;2022-12-05T02:45:23;16.23;;;10.20;;
2646;SDS011;1333;50.958;6.770;2022-12-05T02:47:52;16.43;;;9.03;;
2646;SDS011;1333;50.958;6.770;2022-12-05T02:50:19;16.30;;;8.93;;
2646;SDS011;1333;50.958;6.770;2022-12-05T02:52:48;18.57;;;10.90;;
2646;SDS011;1333;50.958;6.770;2022-12-05T02:55:16;20.57;;;10.93;;
2646;SDS011;1333;50.958;6.770;2022-12-05T02:57:44;15.73;;;9.20;;
2646;SDS011;1333;50.958;6.770;2022-12-05T03:00:14;23.37;;;11.07;;
2646;SDS011;1333;50.958;6.770;2022-12-05T03:02:40;22.07;;;10.20;;
2646;SDS011;1333;50.958;6.770;2022-12-05T03:07:54;18.63;;;10.30;;
2646;SDS011;1333;50.958;6.770;2022-12-05T03:10:24;19.37;;;10.70;;
2646;SDS011;1333;50.958;6.770;2022-12-05T03:12:55;19.27;;;10.77;;
2646;SDS011;1333;50.958;6.770;2022-12-05T03:15:28;18.00;;;9.80;;
2646;SDS011;1333;50.958;6.770;2022-12-05T03:18:00;14.70;;;8.97;;
2646;SDS011;1333;50.958;6.770;2022-12-05T03:20:55;16.60;;;8.97;;
2646;SDS011;1333;50.958;6.770;2022-12-05T03:23:33;15.17;;;9.27;;
2646;SDS011;1333;50.958;6.770;2022-12-05T03:26:19;16.33;;;8.40;;
2646;SDS011;1333;50.958;6.770;2022-12-05T03:32:06;14.37;;;8.43;;
2646;SDS011;1333;50.958;6.770;2022-12-05T03:37:46;19.87;;;9.23;;
2646;SDS011;1333;50.958;6.770;2022-12-05T03:40:26;18.30;;;8.83;;
2646;SDS011;1333;50.958;6.770;2022-12-05T03:43:09;16.57;;;9.63;;
2646;SDS011;1333;50.958;6.770;2022-12-05T03:48:34;15.33;;;8.90;;
2646;SDS011;1333;50.958;6.770;2022-12-05T03:51:07;15.80;;;9.80;;
2646;SDS011;1333;50.958;6.770;2022-12-05T03:53:39;15.90;;;9.57;;
2646;SDS011;1333;50.958;6.770;2022-12-05T03:56:12;10.93;;;7.90;;
2646;SDS011;1333;50.958;6.770;2022-12-05T04:01:30;18.57;;;9.73;;
2646;SDS011;1333;50.958;6.770;2022-12-05T04:04:00;15.13;;;7.63;;
2646;SDS011;1333;50.958;6.770;2022-12-05T04:06:32;20.23;;;10.40;;
2646;SDS011;1333;50.958;6.770;2022-12-05T04:09:02;15.40;;;10.30;;
2646;SDS011;1333;50.958;6.770;2022-12-05T04:11:39;15.63;;;8.23;;
2646;SDS011;1333;50.958;6.770;2022-12-05T04:14:21;15.40;;;9.10;;
2646;SDS011;1333;50.958;6.770;2022-12-05T04:19:37;20.30;;;10.83;;
2646;SDS011;1333;50.958;6.770;2022-12-05T04:22:25;21.43;;;10.33;;
2646;SDS011;1333;50.958;6.770;2022-12-05T04:24:52;16.10;;;10.07;;
2646;SDS011;1333;50.958;6.770;2022-12-05T04:30:12;12.13;;;7.60;;
2646;SDS011;1333;50.958;6.770;2022-12-05T04:32:44;12.20;;;7.57;;
2646;SDS011;1333;50.958;6.770;2022-12-05T04:35:21;20.33;;;10.63;;
2646;SDS011;1333;50.958;6.770;2022-12-05T04:37:52;13.67;;;9.20;;
2646;SDS011;1333;50.958;6.770;2022-12-05T04:40:24;17.83;;;9.07;;
2646;SDS011;1333;50.958;6.770;2022-12-05T04:42:55;14.67;;;9.17;;
2646;SDS011;1333;50.958;6.770;2022-12-05T04:45:23;16.00;;;9.67;;
2646;SDS011;1333;50.958;6.770;2022-12-05T04:47:52;12.60;;;8.20;;
2646;SDS011;1333;50.958;6.770;2022-12-05T04:50:23;14.27;;;9.47;;
2646;SDS011;1333;50.958;6.770;2022-12-05T04:52:50;18.00;;;10.90;;
2646;SDS011;1333;50.958;6.770;2022-12-05T04:55:19;17.60;;;9.47;;
2646;SDS011;1333;50.958;6.770;2022-12-05T05:00:25;13.87;;;7.97;;
2646;SDS011;1333;50.958;6.770;2022-12-05T05:03:00;19.70;;;9.00;;
2646;SDS011;1333;50.958;6.770;2022-12-05T05:05:35;15.43;;;9.17;;
2646;SDS011;1333;50.958;6.770;2022-12-05T05:08:02;20.20;;;10.20;;
2646;SDS011;1333;50.958;6.770;2022-12-05T05:10:36;14.63;;;8.40;;
2646;SDS011;1333;50.958;6.770;2022-12-05T05:13:05;16.57;;;10.27;;
2646;SDS011;1333;50.958;6.770;2022-12-05T05:15:31;15.90;;;8.00;;
2646;SDS011;1333;50.958;6.770;2022-12-05T05:17:56;16.70;;;9.10;;
2646;SDS011;1333;50.958;6.770;2022-12-05T05:20:22;17.17;;;8.53;;
2646;SDS011;1333;50.958;6.770;2022-12-05T05:22:51;14.10;;;8.63;;
2646;SDS011;1333;50.958;6.770;2022-12-05T05:25:21;18.13;;;10.60;;
2646;SDS011;1333;50.958;6.770;2022-12-05T05:27:48;21.20;;;10.90;;
2646;SDS011;1333;50.958;6.770;2022-12-05T05:30:17;19.40;;;10.23;;
2646;SDS011;1333;50.958;6.770;2022-12-05T05:32:44;13.43;;;9.53;;
2646;SDS011;1333;50.958;6.770;2022-12-05T05:35:10;16.87;;;9.10;;
2646;SDS011;1333;50.958;6.770;2022-12-05T05:37:37;13.93;;;9.33;;
2646;SDS011;1333;50.958;6.770;2022-12-05T05:40:03;23.33;;;11.20;;
2646;SDS011;1333;50.958;6.770;2022-12-05T05:42:30;21.40;;;11.20;;
2646;SDS011;1333;50.958;6.770;2022-12-05T05:44:56;18.67;;;9.60;;
2646;SDS011;1333;50.958;6.770;2022-12-05T05:47:21;18.53;;;9.60;;
2646;SDS011;1333;50.958;6.770;2022-12-05T05:49:47;16.23;;;9.90;;
2646;SDS011;1333;50.958;6.770;2022-12-05T05:52:12;16.83;;;8.37;;
2646;SDS011;1333;50.958;6.770;2022-12-05T05:54:38;15.90;;;9.07;;
2646;SDS011;1333;50.958;6.770;2022-12-05T05:57:03;16.90;;;9.30;;
2646;SDS011;1333;50.958;6.770;2022-12-05T05:59:29;15.37;;;9.53;;
2646;SDS011;1333;50.958;6.770;2022-12-05T06:01:54;16.20;;;9.17;;
2646;SDS011;1333;50.958;6.770;2022-12-05T06:04:20;17.90;;;9.50;;
2646;SDS011;1333;50.958;6.770;2022-12-05T06:06:45;9.87;;;8.33;;
2646;SDS011;1333;50.958;6.770;2022-12-05T06:09:11;13.17;;;9.07;;
2646;SDS011;1333;50.958;6.770;2022-12-05T06:11:36;15.73;;;8.93;;
2646;SDS011;1333;50.958;6.770;2022-12-05T06:14:02;17.40;;;9.07;;
2646;SDS011;1333;50.958;6.770;2022-12-05T06:16:28;15.07;;;9.27;;
2646;SDS011;1333;50.958;6.770;2022-12-05T06:18:55;16.90;;;9.60;;
2646;SDS011;1333;50.958;6.770;2022-12-05T06:21:21;22.13;;;10.97;;
2646;SDS011;1333;50.958;6.770;2022-12-05T06:23:47;13.47;;;8.90;;
2646;SDS011;1333;50.958;6.770;2022-12-05T06:26:14;17.63;;;9.63;;
2646;SDS011;1333;50.958;6.770;2022-12-05T06:28:41;16.60;;;9.37;;
2646;SDS011;1333;50.958;6.770;2022-12-05T06:31:09;16.20;;;10.37;;
2646;SDS011;1333;50.958;6.770;2022-12-05T06:33:36;21.70;;;11.50;;
2646;SDS011;1333;50.958;6.770;2022-12-05T06:36:03;13.70;;;9.43;;
2646;SDS011;1333;50.958;6.770;2022-12-05T06:38:31;15.30;;;9.27;;
2646;SDS011;1333;50.958;6.770;2022-12-05T06:40:57;11.00;;;8.00;;
2646;SDS011;1333;50.958;6.770;2022-12-05T06:43:23;13.50;;;9.10;;
2646;SDS011;1333;50.958;6.770;2022-12-05T06:45:49;16.70;;;9.17;;
2646;SDS011;1333;50.958;6.770;2022-12-05T06:48:14;21.90;;;9.83;;
2646;SDS011;1333;50.958;6.770;2022-12-05T06:50:46;18.07;;;10.70;;
2646;SDS011;1333;50.958;6.770;2022-12-05T06:53:13;12.27;;;8.27;;
2646;SDS011;1333;50.958;6.770;2022-12-05T06:55:38;16.33;;;9.90;;
2646;SDS011;1333;50.958;6.770;2022-12-05T06:58:04;17.10;;;8.63;;
2646;SDS011;1333;50.958;6.770;2022-12-05T07:00:29;15.93;;;7.03;;
2646;SDS011;1333;50.958;6.770;2022-12-05T07:03:13;15.80;;;8.67;;
2646;SDS011;1333;50.958;6.770;2022-12-05T07:05:39;15.53;;;9.07;;
2646;SDS011;1333;50.958;6.770;2022-12-05T07:08:04;16.27;;;9.10;;
2646;SDS011;1333;50.958;6.770;2022-12-05T07:10:30;20.80;;;10.67;;
2646;SDS011;1333;50.958;6.770;2022-12-05T07:12:55;14.90;;;8.97;;
2646;SDS011;1333;50.958;6.770;2022-12-05T07:15:21;16.77;;;10.63;;
2646;SDS011;1333;50.958;6.770;2022-12-05T07:17:46;17.33;;;10.20;;
2646;SDS011;1333;50.958;6.770;2022-12-05T07:20:12;21.20;;;10.17;;
2646;SDS011;1333;50.958;6.770;2022-12-05T07:22:41;19.93;;;9.97;;
2646;SDS011;1333;50.958;6.770;2022-12-05T07:25:07;18.87;;;10.80;;
2646;SDS011;1333;50.958;6.770;2022-12-05T07:27:33;18.03;;;9.70;;
2646;SDS011;1333;50.958;6.770;2022-12-05T07:29:58;15.40;;;9.43;;
2646;SDS011;1333;50.958;6.770;2022-12-05T07:32:24;17.13;;;10.00;;
2646;SDS011;1333;50.958;6.770;2022-12-05T07:34:50;13.57;;;9.20;;
2646;SDS011;1333;50.958;6.770;2022-12-05T07:37:15;20.20;;;11.17;;
2646;SDS011;1333;50.958;6.770;2022-12-05T07:39:41;15.23;;;9.97;;
2646;SDS011;1333;50.958;6.770;2022-12-05T07:42:06;22.00;;;10.77;;
2646;SDS011;1333;50.958;6.770;2022-12-05T07:44:32;21.10;;;11.00;;
2646;SDS011;1333;50.958;6.770;2022-12-05T07:46:58;12.20;;;8.50;;
2646;SDS011;1333;50.958;6.770;2022-12-05T07:49:24;18.00;;;9.57;;
2646;SDS011;1333;50.958;6.770;2022-12-05T07:51:49;17.10;;;9.43;;
2646;SDS011;1333;50.958;6.770;2022-12-05T07:54:15;12.73;;;8.90;;
2646;SDS011;1333;50.958;6.770;2022-12-05T07:56:41;12.13;;;7.97;;
2646;SDS011;1333;50.958;6.770;2022-12-05T07:59:06;17.57;;;9.70;;
2646;SDS011;1333;50.958;6.770;2022-12-05T08:01:32;15.60;;;9.67;;
2646;SDS011;1333;50.958;6.770;2022-12-05T08:03:57;15.50;;;9.10;;
2646;SDS011;1333;50.958;6.770;2022-12-05T08:06:24;14.33;;;11.03;;
2646;SDS011;1333;50.958;6.770;2022-12-05T08:08:51;14.83;;;8.00;;
2646;SDS011;1333;50.958;6.770;2022-12-05T08:11:18;11.83;;;8.33;;
2646;SDS011;1333;50.958;6.770;2022-12-05T08:13:48;16.40;;;9.00;;
2646;SDS011;1333;50.958;6.770;2022-12-05T08:16:16;11.97;;;7.73;;
2646;SDS011;1333;50.958;6.770;2022-12-05T08:18:43;12.13;;;7.60;;
2646;SDS011;1333;50.958;6.770;2022-12-05T08:21:11;15.17;;;10.17;;
2646;SDS011;1333;50.958;6.770;2022-12-05T08:23:41;11.87;;;9.17;;
2646;SDS011;1333;50.958;6.770;2022-12-05T08:28:37;14.50;;;8.20;;
2646;SDS011;1333;50.958;6.770;2022-12-05T08:31:04;13.83;;;7.50;;
2646;SDS011;1333;50.958;6.770;2022-12-05T08:33:37;12.10;;;8.40;;
2646;SDS011;1333;50.958;6.770;2022-12-05T08:36:04;12.30;;;7.73;;
2646;SDS011;1333;50.958;6.770;2022-12-05T08:38:31;16.67;;;9.77;;
2646;SDS011;1333;50.958;6.770;2022-12-05T08:40:59;12.83;;;9.40;;
2646;SDS011;1333;50.958;6.770;2022-12-05T08:43:26;12.23;;;7.27;;
2646;SDS011;1333;50.958;6.770;2022-12-05T08:45:52;19.60;;;11.17;;
2646;SDS011;1333;50.958;6.770;2022-12-05T08:48:18;12.60;;;8.37;;
2646;SDS011;1333;50.958;6.770;2022-12-05T08:50:44;13.20;;;9.00;;
2646;SDS011;1333;50.958;6.770;2022-12-05T08:53:10;19.60;;;12.47;;
2646;SDS011;1333;50.958;6.770;2022-12-05T08:55:35;19.70;;;14.70;;
2646;SDS011;1333;50.958;6.770;2022-12-05T08:58:01;32.13;;;19.00;;
2646;SDS011;1333;50.958;6.770;2022-12-05T09:00:27;27.33;;;17.90;;
2646;SDS011;1333;50.958;6.770;2022-12-05T09:02:53;23.40;;;15.63;;
2646;SDS011;1333;50.958;6.770;2022-12-05T09:05:18;18.47;;;15.00;;
2646;SDS011;1333;50.958;6.770;2022-12-05T09:07:44;18.80;;;10.10;;
2646;SDS011;1333;50.958;6.770;2022-12-05T09:10:09;10.70;;;8.20;;
2646;SDS011;1333;50.958;6.770;2022-12-05T09:12:35;14.00;;;8.20;;
2646;SDS011;1333;50.958;6.770;2022-12-05T09:15:01;13.77;;;8.67;;
2646;SDS011;1333;50.958;6.770;2022-12-05T09:17:27;13.13;;;8.17;;
2646;SDS011;1333;50.958;6.770;2022-12-05T09:19:53;12.60;;;8.33;;
2646;SDS011;1333;50.958;6.770;2022-12-05T09:22:18;12.43;;;8.33;;
2646;SDS011;1333;50.958;6.770;2022-12-05T09:24:44;11.87;;;7.70;;
2646;SDS011;1333;50.958;6.770;2022-12-05T09:27:09;12.83;;;9.00;;
2646;SDS011;1333;50.958;6.770;2022-12-05T09:29:35;12.40;;;8.23;;
2646;SDS011;1333;50.958;6.770;2022-12-05T09:32:01;14.97;;;10.13;;
2646;SDS011;1333;50.958;6.770;2022-12-05T09:34:26;16.80;;;8.60;;
2646;SDS011;1333;50.958;6.770;2022-12-05T09:36:53;13.90;;;8.60;;
2646;SDS011;1333;50.958;6.770;2022-12-05T09:39:18;14.77;;;9.30;;
2646;SDS011;1333;50.958;6.770;2022-12-05T09:50:26;16.17;;;9.70;;
2646;SDS011;1333;50.958;6.770;2022-12-05T09:55:35;15.47;;;9.77;;
2646;SDS011;1333;50.958;6.770;2022-12-05T09:58:54;14.70;;;11.00;;
2646;SDS011;1333;50.958;6.770;2022-12-05T10:06:36;12.37;;;8.57;;
2646;SDS011;1333;50.958;6.770;2022-12-05T10:11:58;15.97;;;9.13;;
2646;SDS011;1333;50.958;6.770;2022-12-05T10:17:20;14.43;;;8.77;;
2646;SDS011;1333;50.958;6.770;2022-12-05T10:19:46;14.13;;;8.73;;
2646;SDS011;1333;50.958;6.770;2022-12-05T10:22:17;12.17;;;9.27;;
2646;SDS011;1333;50.958;6.770;2022-12-05T10:24:53;15.27;;;8.47;;
2646;SDS011;1333;50.958;6.770;2022-12-05T10:27:25;10.57;;;7.80;;
2646;SDS011;1333;50.958;6.770;2022-12-05T10:29:57;13.27;;;7.97;;
2646;SDS011;1333;50.958;6.770;2022-12-05T10:32:27;9.23;;;7.13;;
2646;SDS011;1333;50.958;6.770;2022-12-05T10:35:18;11.00;;;7.20;;
2646;SDS011;1333;50.958;6.770;2022-12-05T10:37:47;10.00;;;6.50;;
2646;SDS011;1333;50.958;6.770;2022-12-05T10:40:16;7.97;;;5.50;;
2646;SDS011;1333;50.958;6.770;2022-12-05T10:42:41;7.87;;;6.00;;
2646;SDS011;1333;50.958;6.770;2022-12-05T10:45:13;10.00;;;7.03;;
2646;SDS011;1333;50.958;6.770;2022-12-05T10:47:43;10.27;;;6.27;;
2646;SDS011;1333;50.958;6.770;2022-12-05T10:50:29;8.20;;;6.70;;
2646;SDS011;1333;50.958;6.770;2022-12-05T10:52:56;7.77;;;6.03;;
2646;SDS011;1333;50.958;6.770;2022-12-05T10:55:26;8.13;;;6.70;;
2646;SDS011;1333;50.958;6.770;2022-12-05T10:58:18;7.13;;;5.27;;
2646;SDS011;1333;50.958;6.770;2022-12-05T11:00:48;14.30;;;8.40;;
2646;SDS011;1333;50.958;6.770;2022-12-05T11:03:20;10.57;;;7.17;;
2646;SDS011;1333;50.958;6.770;2022-12-05T11:06:02;9.53;;;6.80;;
2646;SDS011;1333;50.958;6.770;2022-12-05T11:08:39;8.17;;;6.53;;
2646;SDS011;1333;50.958;6.770;2022-12-05T11:16:26;9.33;;;6.37;;
2646;SDS011;1333;50.958;6.770;2022-12-05T11:18:55;13.13;;;7.47;;
2646;SDS011;1333;50.958;6.770;2022-12-05T11:21:20;7.57;;;6.60;;
2646;SDS011;1333;50.958;6.770;2022-12-05T11:23:47;7.30;;;6.60;;
2646;SDS011;1333;50.958;6.770;2022-12-05T11:28:59;8.53;;;5.93;;
2646;SDS011;1333;50.958;6.770;2022-12-05T11:31:26;8.90;;;6.50;;
2646;SDS011;1333;50.958;6.770;2022-12-05T11:34:28;6.03;;;5.43;;
2646;SDS011;1333;50.958;6.770;2022-12-05T11:36:47;10.63;;;6.60;;
2646;SDS011;1333;50.958;6.770;2022-12-05T11:39:18;9.63;;;6.57;;
2646;SDS011;1333;50.958;6.770;2022-12-05T11:42:02;12.13;;;8.90;;
2646;SDS011;1333;50.958;6.770;2022-12-05T11:47:59;11.87;;;7.37;;
2646;SDS011;1333;50.958;6.770;2022-12-05T11:51:14;10.90;;;7.50;;
2646;SDS011;1333;50.958;6.770;2022-12-05T11:56:40;11.87;;;7.73;;
2646;SDS011;1333;50.958;6.770;2022-12-05T11:59:32;11.57;;;8.80;;
2646;SDS011;1333;50.958;6.770;2022-12-05T12:04:58;9.90;;;6.90;;
2646;SDS011;1333;50.958;6.770;2022-12-05T12:18:19;9.87;;;7.00;;
2646;SDS011;1333;50.958;6.770;2022-12-05T12:21:12;12.47;;;7.37;;
2646;SDS011;1333;50.958;6.770;2022-12-05T12:26:51;11.87;;;7.97;;
2646;SDS011;1333;50.958;6.770;2022-12-05T12:32:54;14.93;;;8.60;;
2646;SDS011;1333;50.958;6.770;2022-12-05T12:35:30;12.63;;;8.70;;
2646;SDS011;1333;50.958;6.770;2022-12-05T12:43:19;12.63;;;8.83;;
2646;SDS011;1333;50.958;6.770;2022-12-05T12:52:00;14.93;;;9.47;;
2646;SDS011;1333;50.958;6.770;2022-12-05T13:00:11;11.23;;;7.87;;
2646;SDS011;1333;50.958;6.770;2022-12-05T13:05:34;14.00;;;8.73;;
2646;SDS011;1333;50.958;6.770;2022-12-05T13:10:46;8.57;;;6.77;;
2646;SDS011;1333;50.958;6.770;2022-12-05T13:13:47;14.67;;;8.83;;
2646;SDS011;1333;50.958;6.770;2022-12-05T13:16:16;13.23;;;9.03;;
2646;SDS011;1333;50.958;6.770;2022-12-05T13:18:58;10.40;;;7.30;;
2646;SDS011;1333;50.958;6.770;2022-12-05T13:21:25;14.00;;;6.83;;
2646;SDS011;1333;50.958;6.770;2022-12-05T13:23:52;10.43;;;7.90;;
2646;SDS011;1333;50.958;6.770;2022-12-05T13:26:20;11.53;;;8.20;;
2646;SDS011;1333;50.958;6.770;2022-12-05T13:31:44;9.00;;;7.57;;
2646;SDS011;1333;50.958;6.770;2022-12-05T13:34:32;9.23;;;7.07;;
2646;SDS011;1333;50.958;6.770;2022-12-05T13:37:25;11.63;;;7.30;;
2646;SDS011;1333;50.958;6.770;2022-12-05T13:43:19;11.33;;;7.00;;
2646;SDS011;1333;50.958;6.770;2022-12-05T13:46:32;10.60;;;7.47;;
2646;SDS011;1333;50.958;6.770;2022-12-05T13:48:45;11.17;;;8.50;;
2646;SDS011;1333;50.958;6.770;2022-12-05T13:51:21;10.27;;;6.17;;
2646;SDS011;1333;50.958;6.770;2022-12-05T13:53:58;8.57;;;6.73;;
2646;SDS011;1333;50.958;6.770;2022-12-05T13:56:50;8.60;;;7.00;;
2646;SDS011;1333;50.958;6.770;2022-12-05T14:02:45;8.03;;;5.50;;
2646;SDS011;1333;50.958;6.770;2022-12-05T14:07:44;13.70;;;8.47;;
2646;SDS011;1333;50.958;6.770;2022-12-05T14:10:14;10.97;;;7.50;;
2646;SDS011;1333;50.958;6.770;2022-12-05T14:15:54;9.17;;;5.90;;
2646;SDS011;1333;50.958;6.770;2022-12-05T14:18:52;7.33;;;5.23;;
2646;SDS011;1333;50.958;6.770;2022-12-05T14:21:35;8.80;;;6.00;;
2646;SDS011;1333;50.958;6.770;2022-12-05T14:35:12;15.40;;;8.70;;
2646;SDS011;1333;50.958;6.770;2022-12-05T14:37:40;12.17;;;7.10;;
2646;SDS011;1333;50.958;6.770;2022-12-05T14:40:19;9.17;;;6.10;;
2646;SDS011;1333;50.958;6.770;2022-12-05T14:43:41;10.17;;;7.27;;
2646;SDS011;1333;50.958;6.770;2022-12-05T14:45:57;11.20;;;6.40;;
2646;SDS011;1333;50.958;6.770;2022-12-05T14:50:56;12.43;;;8.57;;
2646;SDS011;1333;50.958;6.770;2022-12-05T14:53:25;15.60;;;10.07;;
2646;SDS011;1333;50.958;6.770;2022-12-05T14:58:31;13.07;;;8.87;;
2646;SDS011;1333;50.958;6.770;2022-12-05T15:00:59;12.23;;;7.93;;
2646;SDS011;1333;50.958;6.770;2022-12-05T15:03:38;14.10;;;8.30;;
2646;SDS011;1333;50.958;6.770;2022-12-05T15:06:09;11.33;;;6.57;;
2646;SDS011;1333;50.958;6.770;2022-12-05T15:08:49;13.97;;;7.37;;
2646;SDS011;1333;50.958;6.770;2022-12-05T15:11:19;10.70;;;7.77;;
2646;SDS011;1333;50.958;6.770;2022-12-05T15:13:59;11.70;;;7.93;;
2646;SDS011;1333;50.958;6.770;2022-12-05T15:16:34;14.90;;;8.80;;
2646;SDS011;1333;50.958;6.770;2022-12-05T15:19:08;17.40;;;8.50;;
2646;SDS011;1333;50.958;6.770;2022-12-05T15:21:42;19.57;;;10.37;;
2646;SDS011;1333;50.958;6.770;2022-12-05T15:24:12;13.37;;;8.80;;
2646;SDS011;1333;50.958;6.770;2022-12-05T15:31:50;17.60;;;10.50;;
2646;SDS011;1333;50.958;6.770;2022-12-05T15:34:26;11.33;;;7.77;;
2646;SDS011;1333;50.958;6.770;2022-12-05T15:37:09;10.07;;;8.17;;
2646;SDS011;1333;50.958;6.770;2022-12-05T15:42:22;11.40;;;8.50;;
2646;SDS011;1333;50.958;6.770;2022-12-05T15:44:54;13.67;;;9.23;;
2646;SDS011;1333;50.958;6.770;2022-12-05T15:47:54;10.07;;;7.73;;
2646;SDS011;1333;50.958;6.770;2022-12-05T15:50:42;11.07;;;8.77;;
2646;SDS011;1333;50.958;6.770;2022-12-05T15:53:14;12.00;;;8.70;;
2646;SDS011;1333;50.958;6.770;2022-12-05T15:55:47;12.03;;;7.70;;
2646;SDS011;1333;50.958;6.770;2022-12-05T15:58:28;16.50;;;9.80;;
2646;SDS011;1333;50.958;6.770;2022-12-05T16:01:04;9.47;;;7.50;;
2646;SDS011;1333;50.958;6.770;2022-12-05T16:06:09;11.60;;;8.00;;
2646;SDS011;1333;50.958;6.770;2022-12-05T16:08:46;10.33;;;6.93;;
2646;SDS011;1333;50.958;6.770;2022-12-05T16:11:13;9.83;;;7.33;;
2646;SDS011;1333;50.958;6.770;2022-12-05T16:13:43;10.10;;;7.97;;
2646;SDS011;1333;50.958;6.770;2022-12-05T16:16:13;7.10;;;5.80;;
2646;SDS011;1333;50.958;6.770;2022-12-05T16:18:47;10.53;;;8.30;;
2646;SDS011;1333;50.958;6.770;2022-12-05T16:24:05;10.60;;;7.47;;
2646;SDS011;1333;50.958;6.770;2022-12-05T16:26:37;9.53;;;6.33;;
2646;SDS011;1333;50.958;6.770;2022-12-05T16:29:03;7.57;;;6.40;;
2646;SDS011;1333;50.958;6.770;2022-12-05T16:31:30;7.90;;;6.37;;
2646;SDS011;1333;50.958;6.770;2022-12-05T16:34:00;8.00;;;6.73;;
2646;SDS011;1333;50.958;6.770;2022-12-05T16:36:28;9.10;;;7.07;;
2646;SDS011;1333;50.958;6.770;2022-12-05T16:39:02;9.50;;;6.50;;
2646;SDS011;1333;50.958;6.770;2022-12-05T16:41:33;9.27;;;6.90;;
2646;SDS011;1333;50.958;6.770;2022-12-05T16:44:03;9.93;;;6.87;;
2646;SDS011;1333;50.958;6.770;2022-12-05T16:51:42;8.00;;;6.17;;
2646;SDS011;1333;50.958;6.770;2022-12-05T16:54:09;7.40;;;5.40;;
2646;SDS011;1333;50.958;6.770;2022-12-05T16:56:34;8.60;;;6.23;;
2646;SDS011;1333;50.958;6.770;2022-12-05T16:59:01;7.47;;;5.67;;
2646;SDS011;1333;50.958;6.770;2022-12-05T17:01:27;8.73;;;6.30;;
2646;SDS011;1333;50.958;6.770;2022-12-05T17:03:53;6.23;;;5.63;;
2646;SDS011;1333;50.958;6.770;2022-12-05T17:06:20;8.60;;;5.00;;
2646;SDS011;1333;50.958;6.770;2022-12-05T17:08:48;5.03;;;4.43;;
2646;SDS011;1333;50.958;6.770;2022-12-05T17:11:15;6.80;;;4.87;;
2646;SDS011;1333;50.958;6.770;2022-12-05T17:13:43;5.60;;;5.10;;
2646;SDS011;1333;50.958;6.770;2022-12-05T17:16:12;7.23;;;5.80;;
2646;SDS011;1333;50.958;6.770;2022-12-05T17:18:38;5.47;;;4.50;;
2646;SDS011;1333;50.958;6.770;2022-12-05T17:21:04;5.90;;;5.30;;
2646;SDS011;1333;50.958;6.770;2022-12-05T17:23:30;9.20;;;6.50;;
2646;SDS011;1333;50.958;6.770;2022-12-05T17:25:56;6.20;;;5.37;;
2646;SDS011;1333;50.958;6.770;2022-12-05T17:28:23;5.87;;;5.07;;
2646;SDS011;1333;50.958;6.770;2022-12-05T17:30:49;7.80;;;6.57;;
2646;SDS011;1333;50.958;6.770;2022-12-05T17:33:15;8.60;;;6.40;;
2646;SDS011;1333;50.958;6.770;2022-12-05T17:35:42;8.70;;;6.30;;
2646;SDS011;1333;50.958;6.770;2022-12-05T17:38:08;6.80;;;5.70;;
2646;SDS011;1333;50.958;6.770;2022-12-05T17:40:37;5.10;;;4.30;;
2646;SDS011;1333;50.958;6.770;2022-12-05T17:43:03;6.00;;;4.20;;
2646;SDS011;1333;50.958;6.770;2022-12-05T17:45:29;6.37;;;5.40;;
2646;SDS011;1333;50.958;6.770;2022-12-05T17:47:55;4.83;;;4.33;;
2646;SDS011;1333;50.958;6.770;2022-12-05T17:50:21;6.03;;;4.90;;
2646;SDS011;1333;50.958;6.770;2022-12-05T17:52:48;6.63;;;4.90;;
2646;SDS011;1333;50.958;6.770;2022-12-05T17:55:16;5.10;;;4.30;;
2646;SDS011;1333;50.958;6.770;2022-12-05T17:57:44;4.97;;;4.30;;
2646;SDS011;1333;50.958;6.770;2022-12-05T18:00:11;6.23;;;4.77;;
2646;SDS011;1333;50.958;6.770;2022-12-05T18:02:38;5.07;;;4.57;;
2646;SDS011;1333;50.958;6.770;2022-12-05T18:05:04;4.73;;;4.20;;
2646;SDS011;1333;50.958;6.770;2022-12-05T18:07:30;6.70;;;4.77;;
2646;SDS011;1333;50.958;6.770;2022-12-05T18:09:56;5.83;;;5.23;;
2646;SDS011;1333;50.958;6.770;2022-12-05T18:12:21;7.87;;;5.00;;